createdAt,value
2017-09-20T00:02:40.732Z,0
2017-09-20T00:12:40.804Z,0
2017-09-20T00:22:40.725Z,0
2017-09-20T00:32:40.811Z,0
2017-09-20T00:42:40.702Z,0
2017-09-20T00:52:40.700Z,0
2017-09-20T01:02:40.801Z,0
2017-09-20T01:12:40.700Z,0
2017-09-20T01:22:40.673Z,0
2017-09-20T01:32:40.653Z,0
2017-09-20T01:42:40.797Z,0
2017-09-20T01:52:40.750Z,0
2017-09-20T02:02:40.780Z,0
2017-09-20T02:12:40.759Z,0
2017-09-20T02:22:40.695Z,0
2017-09-20T02:32:40.681Z,0
2017-09-20T02:42:40.711Z,0
2017-09-20T02:52:40.638Z,0
2017-09-20T03:02:40.791Z,0
2017-09-20T03:12:40.638Z,0
2017-09-20T03:22:40.639Z,0
2017-09-20T03:32:40.714Z,0
2017-09-20T03:42:40.692Z,0
2017-09-20T03:52:40.677Z,0
2017-09-20T04:02:40.727Z,0
2017-09-20T04:12:40.728Z,0
2017-09-20T04:22:40.780Z,0
2017-09-20T04:32:40.691Z,0
2017-09-20T04:42:40.716Z,0
2017-09-20T04:52:40.834Z,0
2017-09-20T05:02:40.709Z,0
2017-09-20T05:12:40.793Z,0
2017-09-20T05:22:40.811Z,0
2017-09-20T05:32:40.787Z,5
2017-09-20T05:42:40.814Z,15
2017-09-20T05:52:40.930Z,15
2017-09-20T06:02:40.810Z,20
2017-09-20T06:12:40.772Z,30
2017-09-20T06:22:40.743Z,30
2017-09-20T06:32:40.783Z,50
2017-09-20T06:42:40.801Z,60
2017-09-20T06:52:40.804Z,70
2017-09-20T07:02:40.795Z,55
2017-09-20T07:12:40.827Z,40
2017-09-20T07:22:40.826Z,55
2017-09-20T07:32:40.818Z,45
2017-09-20T07:42:40.818Z,60
2017-09-20T07:52:40.933Z,80
2017-09-20T08:02:40.879Z,80
2017-09-20T08:12:40.851Z,55
2017-09-20T08:22:40.838Z,105
2017-09-20T08:32:40.863Z,115
2017-09-20T08:42:40.901Z,110
2017-09-20T08:52:40.933Z,130
2017-09-20T09:02:40.940Z,170
2017-09-20T09:12:40.901Z,190
2017-09-20T09:22:41.573Z,155
2017-09-20T09:32:40.958Z,145
2017-09-20T09:42:40.952Z,220
2017-09-20T09:52:41.032Z,225
2017-09-20T10:02:42.469Z,170
2017-09-20T10:12:40.997Z,225
2017-09-20T10:22:41.097Z,215
2017-09-20T10:32:41.068Z,250
2017-09-20T10:42:41.151Z,285
2017-09-20T10:52:41.000Z,270
2017-09-20T11:02:40.948Z,245
2017-09-20T11:12:40.993Z,215
2017-09-20T11:22:41.058Z,175
2017-09-20T11:32:40.946Z,145
2017-09-20T11:42:40.972Z,175
2017-09-20T11:52:41.000Z,165
2017-09-20T12:02:41.048Z,60
2017-09-20T12:12:41.322Z,35
2017-09-20T12:22:41.259Z,25
2017-09-20T12:32:41.069Z,40
2017-09-20T12:42:41.037Z,55
2017-09-20T12:52:41.000Z,135
2017-09-20T13:02:41.316Z,175
2017-09-20T13:12:41.070Z,185
2017-09-20T13:22:41.741Z,175
2017-09-20T13:32:41.067Z,180
2017-09-20T13:42:41.132Z,170
2017-09-20T13:52:41.010Z,130
2017-09-20T14:02:41.087Z,125
2017-09-20T14:12:40.965Z,110
2017-09-20T14:22:41.297Z,135
2017-09-20T14:32:40.978Z,135
2017-09-20T14:42:41.090Z,105
2017-09-20T14:52:41.053Z,60
2017-09-20T15:02:41.087Z,105
2017-09-20T15:12:41.016Z,95
2017-09-20T15:22:41.088Z,95
2017-09-20T15:32:41.085Z,90
2017-09-20T15:42:42.054Z,75
2017-09-20T15:52:43.095Z,60
2017-09-20T16:02:41.038Z,50
2017-09-20T16:12:42.122Z,55
2017-09-20T16:22:41.130Z,50
2017-09-20T16:32:49.430Z,45
2017-09-20T16:42:47.802Z,35
2017-09-20T16:52:41.057Z,25
2017-09-20T17:02:41.020Z,15
2017-09-20T17:12:42.076Z,15
2017-09-20T17:22:41.683Z,5
2017-09-20T17:32:42.132Z,0
2017-09-20T17:42:41.013Z,0
2017-09-20T17:52:46.110Z,0
2017-09-20T18:02:41.003Z,0
2017-09-20T18:12:42.251Z,0
2017-09-20T18:22:42.237Z,0
2017-09-20T18:32:40.977Z,0
2017-09-20T18:42:41.123Z,0
2017-09-20T18:52:41.672Z,0
2017-09-20T19:02:44.564Z,0
2017-09-20T19:12:41.081Z,0
2017-09-20T19:22:41.036Z,0
2017-09-20T19:32:41.146Z,0
2017-09-20T19:42:43.041Z,0
2017-09-20T19:52:41.295Z,0
2017-09-20T20:02:41.058Z,0
2017-09-20T20:12:41.078Z,0
2017-09-20T20:22:41.798Z,0
2017-09-20T20:32:42.240Z,0
2017-09-20T20:42:41.081Z,0
2017-09-20T20:52:41.361Z,0
2017-09-20T21:02:41.625Z,0
2017-09-20T21:12:41.678Z,0
2017-09-20T21:22:41.116Z,0
2017-09-20T21:32:41.210Z,0
2017-09-20T21:42:41.235Z,0
2017-09-20T21:52:41.093Z,0
2017-09-20T22:02:41.007Z,0
2017-09-20T22:12:41.144Z,0
2017-09-20T22:22:41.731Z,0
2017-09-20T22:32:40.987Z,0
2017-09-20T22:42:41.079Z,0
2017-09-20T22:52:40.959Z,0
2017-09-20T23:02:41.134Z,0
2017-09-20T23:12:41.120Z,0
2017-09-20T23:22:41.057Z,0
2017-09-20T23:32:41.281Z,0
2017-09-20T23:42:41.809Z,0
2017-09-20T23:52:40.993Z,0
